createdAt,value
2018-02-15T00:01:36.624Z,12.95
2018-02-15T00:04:04.394Z,15.93
2018-02-15T00:06:32.032Z,14.85
2018-02-15T00:08:59.738Z,13.45
2018-02-15T00:11:27.485Z,14.13
2018-02-15T00:13:55.214Z,14.27
2018-02-15T00:16:22.903Z,13.98
2018-02-15T00:18:50.613Z,12.93
2018-02-15T00:21:18.295Z,12.25
2018-02-15T00:23:45.989Z,13.65
2018-02-15T00:26:13.688Z,14.13
2018-02-15T00:28:41.394Z,12.18
2018-02-15T00:31:09.141Z,14.40
2018-02-15T00:33:36.867Z,14.40
2018-02-15T00:36:04.533Z,11.90
2018-02-15T00:38:32.253Z,14.90
2018-02-15T00:40:59.927Z,13.93
2018-02-15T00:43:27.729Z,13.40
2018-02-15T00:45:55.410Z,17.15
2018-02-15T00:48:23.227Z,14.13
2018-02-15T00:50:50.886Z,11.75
2018-02-15T00:53:18.610Z,14.55
2018-02-15T00:55:46.277Z,16.10
2018-02-15T00:58:13.980Z,13.70
2018-02-15T01:00:41.745Z,10.15
2018-02-15T01:03:09.480Z,12.93
2018-02-15T01:05:37.306Z,12.50
2018-02-15T01:08:05.006Z,16.37
2018-02-15T01:10:32.683Z,12.80
2018-02-15T01:13:00.379Z,11.02
2018-02-15T01:15:28.048Z,11.70
2018-02-15T01:17:55.753Z,12.48
2018-02-15T01:20:23.427Z,10.52
2018-02-15T01:22:51.125Z,13.93
2018-02-15T01:25:18.822Z,13.18
2018-02-15T01:27:46.538Z,10.55
2018-02-15T01:30:14.203Z,10.73
2018-02-15T01:32:41.953Z,11.60
2018-02-15T01:35:09.626Z,13.18
2018-02-15T01:37:37.317Z,12.63
2018-02-15T01:40:05.004Z,14.68
2018-02-15T01:42:32.703Z,11.80
2018-02-15T01:45:00.374Z,14.15
2018-02-15T01:47:28.094Z,12.30
2018-02-15T01:50:04.495Z,13.00
2018-02-15T01:52:32.204Z,12.10
2018-02-15T01:54:59.889Z,13.05
2018-02-15T01:57:27.594Z,13.40
2018-02-15T01:59:55.335Z,9.70
2018-02-15T02:02:23.026Z,12.27
2018-02-15T02:04:50.738Z,11.38
2018-02-15T02:07:18.431Z,12.77
2018-02-15T02:09:46.144Z,11.63
2018-02-15T02:12:13.836Z,10.88
2018-02-15T02:14:41.558Z,13.82
2018-02-15T02:17:09.252Z,12.73
2018-02-15T02:19:36.950Z,12.40
2018-02-15T02:22:04.762Z,15.45
2018-02-15T02:24:32.421Z,14.10
2018-02-15T02:27:00.111Z,12.18
2018-02-15T02:29:27.806Z,12.05
2018-02-15T02:31:55.470Z,12.60
2018-02-15T02:34:23.180Z,11.43
2018-02-15T02:36:50.852Z,14.40
2018-02-15T02:39:18.545Z,13.40
2018-02-15T02:41:46.238Z,12.00
2018-02-15T02:44:13.945Z,14.75
2018-02-15T02:46:41.628Z,12.35
2018-02-15T02:49:09.322Z,11.73
2018-02-15T02:51:37.030Z,14.70
2018-02-15T02:54:04.665Z,10.33
2018-02-15T02:56:32.330Z,10.45
2018-02-15T02:59:00.033Z,16.10
2018-02-15T03:01:27.717Z,14.10
2018-02-15T03:03:55.425Z,15.75
2018-02-15T03:06:23.106Z,12.40
2018-02-15T03:08:50.832Z,13.25
2018-02-15T03:11:18.510Z,11.35
2018-02-15T03:13:46.205Z,18.20
2018-02-15T03:16:13.923Z,12.07
2018-02-15T03:18:41.675Z,13.52
2018-02-15T03:21:09.349Z,14.95
2018-02-15T03:23:37.080Z,15.15
2018-02-15T03:26:04.746Z,14.20
2018-02-15T03:28:32.470Z,16.58
2018-02-15T03:31:00.141Z,10.10
2018-02-15T03:33:27.833Z,17.73
2018-02-15T03:35:55.510Z,19.37
2018-02-15T03:38:23.220Z,14.93
2018-02-15T03:40:50.913Z,12.18
2018-02-15T03:43:18.633Z,14.40
2018-02-15T03:45:46.313Z,11.70
2018-02-15T03:48:14.006Z,12.27
2018-02-15T03:50:41.739Z,11.35
2018-02-15T03:53:09.538Z,16.05
2018-02-15T03:55:37.224Z,13.00
2018-02-15T03:58:04.938Z,19.37
2018-02-15T04:00:32.619Z,14.25
2018-02-15T04:03:00.329Z,15.02
2018-02-15T04:05:28.002Z,18.02
2018-02-15T04:07:56.170Z,16.02
2018-02-15T04:10:23.846Z,19.70
2018-02-15T04:12:51.681Z,16.05
2018-02-15T04:15:19.389Z,15.90
2018-02-15T04:17:47.161Z,22.08
2018-02-15T04:20:14.826Z,17.90
2018-02-15T04:22:42.537Z,22.83
2018-02-15T04:25:10.213Z,19.95
2018-02-15T04:27:37.940Z,21.87
2018-02-15T04:30:05.635Z,20.25
2018-02-15T04:32:33.351Z,22.30
2018-02-15T04:35:01.042Z,39.25
2018-02-15T04:37:28.766Z,21.73
2018-02-15T04:39:56.502Z,29.15
2018-02-15T04:42:24.243Z,26.52
2018-02-15T04:44:52.000Z,24.58
2018-02-15T04:47:19.689Z,27.92
2018-02-15T04:49:47.510Z,24.33
2018-02-15T04:52:15.189Z,27.20
2018-02-15T04:54:42.909Z,29.50
2018-02-15T04:57:10.590Z,25.20
2018-02-15T04:59:38.353Z,26.42
2018-02-15T05:02:06.046Z,20.98
2018-02-15T05:04:33.766Z,23.33
2018-02-15T05:07:01.455Z,27.52
2018-02-15T05:09:29.174Z,28.58
2018-02-15T05:11:56.889Z,24.02
2018-02-15T05:14:24.601Z,25.48
2018-02-15T05:16:52.290Z,24.90
2018-02-15T05:19:19.997Z,31.12
2018-02-15T05:21:47.684Z,25.58
2018-02-15T05:24:15.386Z,25.45
2018-02-15T05:26:43.074Z,26.02
2018-02-15T05:29:10.797Z,29.65
2018-02-15T05:31:38.466Z,31.92
2018-02-15T05:34:06.201Z,25.30
2018-02-15T05:36:33.886Z,27.37
2018-02-15T05:39:01.718Z,27.52
2018-02-15T05:41:29.393Z,46.70
2018-02-15T05:43:57.334Z,25.25
2018-02-15T05:46:25.015Z,28.15
2018-02-15T05:48:52.746Z,25.45
2018-02-15T05:51:20.571Z,27.50
2018-02-15T05:53:48.274Z,27.92
2018-02-15T05:56:15.980Z,30.75
2018-02-15T05:58:43.802Z,28.60
2018-02-15T06:01:11.493Z,29.00
2018-02-15T06:03:39.442Z,25.30
2018-02-15T06:06:07.275Z,31.05
2018-02-15T06:08:35.108Z,28.85
2018-02-15T06:11:02.811Z,24.75
2018-02-15T06:13:30.510Z,29.10
2018-02-15T06:15:58.187Z,27.77
2018-02-15T06:18:25.918Z,26.23
2018-02-15T06:20:53.623Z,30.50
2018-02-15T06:23:21.392Z,24.12
2018-02-15T06:25:49.079Z,25.70
2018-02-15T06:28:16.785Z,26.60
2018-02-15T06:30:44.477Z,29.87
2018-02-15T06:33:12.193Z,28.42
2018-02-15T06:35:39.938Z,29.08
2018-02-15T06:38:07.654Z,30.12
2018-02-15T06:40:35.341Z,27.70
2018-02-15T06:43:03.050Z,22.85
2018-02-15T06:45:30.741Z,25.77
2018-02-15T06:47:58.447Z,29.33
2018-02-15T06:50:26.123Z,27.40
2018-02-15T06:52:53.841Z,24.33
2018-02-15T06:55:21.560Z,23.50
2018-02-15T06:57:49.294Z,28.35
2018-02-15T07:00:16.991Z,26.98
2018-02-15T07:02:44.717Z,26.90
2018-02-15T07:05:12.419Z,30.58
2018-02-15T07:07:40.542Z,28.98
2018-02-15T07:10:08.703Z,25.50
2018-02-15T07:12:36.442Z,24.83
2018-02-15T07:15:04.120Z,26.48
2018-02-15T07:17:31.831Z,25.83
2018-02-15T07:19:59.561Z,23.48
2018-02-15T07:22:27.270Z,25.30
2018-02-15T07:24:54.951Z,23.95
2018-02-15T07:27:22.672Z,20.12
2018-02-15T07:29:50.353Z,19.50
2018-02-15T07:32:18.077Z,26.92
2018-02-15T07:34:45.873Z,21.25
2018-02-15T07:37:13.622Z,23.60
2018-02-15T07:39:41.333Z,24.33
2018-02-15T07:42:09.083Z,21.35
2018-02-15T07:44:36.780Z,26.40
2018-02-15T07:47:04.502Z,22.55
2018-02-15T07:49:32.192Z,23.30
2018-02-15T07:51:59.906Z,22.75
2018-02-15T07:54:27.595Z,25.55
2018-02-15T07:56:55.317Z,24.98
2018-02-15T07:59:22.990Z,21.33
2018-02-15T08:01:50.693Z,23.17
2018-02-15T08:04:18.399Z,23.12
2018-02-15T08:06:46.096Z,22.08
2018-02-15T08:09:13.769Z,18.75
2018-02-15T08:11:41.547Z,28.15
2018-02-15T08:14:09.257Z,20.67
2018-02-15T08:16:36.983Z,21.30
2018-02-15T08:19:04.658Z,19.87
2018-02-15T08:21:32.342Z,23.50
2018-02-15T08:24:00.095Z,19.05
2018-02-15T08:26:27.806Z,18.98
2018-02-15T08:28:55.567Z,18.00
2018-02-15T08:31:23.277Z,19.45
2018-02-15T08:33:50.963Z,27.92
2018-02-15T08:36:18.677Z,20.85
2018-02-15T08:38:46.363Z,22.23
2018-02-15T08:41:14.114Z,24.52
2018-02-15T08:43:41.849Z,21.65
2018-02-15T08:46:09.582Z,21.12
2018-02-15T08:48:37.265Z,17.33
2018-02-15T08:51:04.938Z,21.90
2018-02-15T08:53:32.692Z,18.12
2018-02-15T08:56:00.377Z,23.33
2018-02-15T08:58:28.085Z,23.17
2018-02-15T09:00:55.754Z,24.08
2018-02-15T09:03:23.466Z,21.75
2018-02-15T09:05:51.146Z,22.65
2018-02-15T09:08:19.233Z,21.02
2018-02-15T09:10:47.299Z,21.33
2018-02-15T09:13:15.037Z,22.23
2018-02-15T09:15:42.777Z,26.40
2018-02-15T09:18:10.465Z,19.83
2018-02-15T09:20:38.204Z,23.20
2018-02-15T09:23:05.924Z,23.85
2018-02-15T09:25:33.597Z,22.17
2018-02-15T09:28:01.306Z,21.87
2018-02-15T09:30:28.994Z,25.02
2018-02-15T09:32:56.730Z,17.48
2018-02-15T09:35:24.445Z,23.85
2018-02-15T09:37:52.184Z,23.87
2018-02-15T09:40:19.853Z,18.87
2018-02-15T09:42:47.558Z,21.23
2018-02-15T09:45:15.247Z,20.45
2018-02-15T09:47:42.945Z,22.85
2018-02-15T09:50:10.633Z,22.67
2018-02-15T09:52:38.333Z,28.75
2018-02-15T09:55:06.027Z,22.50
2018-02-15T09:57:33.744Z,23.55
2018-02-15T10:00:01.424Z,25.62
2018-02-15T10:02:29.196Z,22.60
2018-02-15T10:04:56.914Z,20.55
2018-02-15T10:07:24.622Z,24.37
2018-02-15T10:09:52.306Z,24.73
2018-02-15T10:12:20.018Z,20.30
2018-02-15T10:14:47.752Z,18.87
2018-02-15T10:17:15.425Z,24.75
2018-02-15T10:19:43.105Z,20.88
2018-02-15T10:22:10.830Z,22.92
2018-02-15T10:24:38.514Z,26.98
2018-02-15T10:27:06.243Z,27.25
2018-02-15T10:29:33.926Z,24.25
2018-02-15T10:32:01.650Z,28.87
2018-02-15T10:34:29.359Z,23.02
2018-02-15T10:36:57.094Z,27.45
2018-02-15T10:39:24.780Z,22.30
2018-02-15T10:41:52.489Z,26.98
2018-02-15T10:44:20.179Z,25.50
2018-02-15T10:46:47.900Z,27.10
2018-02-15T10:49:15.580Z,28.50
2018-02-15T10:51:43.302Z,30.27
2018-02-15T10:54:11.003Z,26.87
2018-02-15T10:56:38.676Z,22.77
2018-02-15T10:59:06.422Z,22.98
2018-02-15T11:01:39.521Z,26.62
2018-02-15T11:04:12.681Z,30.70
2018-02-15T11:06:47.795Z,25.37
2018-02-15T11:09:15.510Z,21.67
2018-02-15T11:11:43.253Z,23.80
2018-02-15T11:14:10.959Z,25.92
2018-02-15T11:16:38.679Z,21.37
2018-02-15T11:19:06.427Z,28.75
2018-02-15T11:21:34.180Z,25.30
2018-02-15T11:24:01.918Z,21.75
2018-02-15T11:26:29.600Z,26.27
2018-02-15T11:28:57.304Z,26.67
2018-02-15T11:31:24.991Z,24.30
2018-02-15T11:33:52.713Z,24.63
2018-02-15T11:36:20.390Z,22.75
2018-02-15T11:38:48.154Z,25.60
2018-02-15T11:41:15.886Z,23.17
2018-02-15T11:43:43.616Z,24.95
2018-02-15T11:46:11.214Z,25.47
2018-02-15T11:48:38.868Z,24.50
2018-02-15T11:51:06.578Z,23.00
2018-02-15T11:53:34.213Z,21.90
2018-02-15T11:56:01.904Z,22.42
2018-02-15T11:58:29.620Z,21.42
2018-02-15T12:00:57.222Z,22.37
2018-02-15T12:03:24.954Z,21.20
2018-02-15T12:05:52.681Z,18.52
2018-02-15T12:08:20.385Z,20.92
2018-02-15T12:10:48.102Z,20.65
2018-02-15T12:13:15.814Z,21.15
2018-02-15T12:15:43.498Z,18.83
2018-02-15T12:18:11.166Z,22.00
2018-02-15T12:20:39.544Z,21.73
2018-02-15T12:23:07.261Z,22.27
2018-02-15T12:25:34.886Z,21.03
2018-02-15T12:28:02.529Z,21.90
2018-02-15T12:30:30.210Z,19.50
2018-02-15T12:32:57.921Z,19.20
2018-02-15T12:35:25.522Z,29.47
2018-02-15T12:37:53.247Z,22.87
2018-02-15T12:40:20.862Z,20.50
2018-02-15T12:42:48.515Z,17.30
2018-02-15T12:45:16.128Z,18.43
2018-02-15T12:47:43.800Z,16.00
2018-02-15T12:50:11.490Z,17.65
2018-02-15T12:52:39.097Z,18.53
2018-02-15T12:55:06.762Z,19.20
2018-02-15T12:57:34.366Z,19.90
2018-02-15T13:00:02.088Z,18.75
2018-02-15T13:02:29.696Z,18.83
2018-02-15T13:04:57.322Z,20.83
2018-02-15T13:07:24.934Z,19.10
2018-02-15T13:09:52.566Z,19.93
2018-02-15T13:12:31.780Z,16.43
2018-02-15T13:14:59.407Z,19.83
2018-02-15T13:17:27.011Z,17.13
2018-02-15T13:20:06.248Z,17.60
2018-02-15T13:22:45.378Z,17.87
2018-02-15T13:25:13.002Z,24.70
2018-02-15T13:27:52.221Z,19.70
2018-02-15T13:30:19.862Z,20.70
2018-02-15T13:32:47.554Z,23.53
2018-02-15T13:35:15.186Z,24.73
2018-02-15T13:37:42.826Z,17.67
2018-02-15T13:40:10.547Z,21.07
2018-02-15T13:42:38.155Z,19.90
2018-02-15T13:45:05.794Z,19.43
2018-02-15T13:47:33.506Z,17.63
2018-02-15T13:50:01.207Z,20.97
2018-02-15T13:52:28.818Z,19.83
2018-02-15T13:54:56.461Z,49.80
2018-02-15T13:57:24.155Z,15.20
2018-02-15T13:59:51.767Z,19.20
2018-02-15T14:02:19.373Z,17.03
2018-02-15T14:04:47.024Z,22.17
2018-02-15T14:07:14.699Z,17.10
2018-02-15T14:09:42.283Z,16.23
2018-02-15T14:12:09.910Z,18.70
2018-02-15T14:14:37.606Z,17.62
2018-02-15T14:17:05.217Z,20.60
2018-02-15T14:19:32.865Z,17.80
2018-02-15T14:22:00.480Z,21.60
2018-02-15T14:24:28.121Z,22.60
2018-02-15T14:26:55.805Z,22.47
2018-02-15T14:29:23.442Z,20.20
2018-02-15T14:31:51.055Z,18.83
2018-02-15T14:34:18.692Z,18.17
2018-02-15T14:36:46.315Z,18.77
2018-02-15T14:39:13.998Z,19.60
2018-02-15T14:41:41.601Z,21.60
2018-02-15T14:44:09.271Z,21.20
2018-02-15T14:46:36.906Z,23.10
2018-02-15T14:49:04.550Z,20.07
2018-02-15T14:51:32.218Z,20.83
2018-02-15T14:53:59.878Z,22.07
2018-02-15T14:56:27.479Z,21.30
2018-02-15T14:58:55.132Z,16.97
2018-02-15T15:01:22.755Z,19.83
2018-02-15T15:03:50.402Z,16.77
2018-02-15T15:06:18.022Z,23.23
2018-02-15T15:08:45.748Z,13.93
2018-02-15T15:11:13.390Z,13.83
2018-02-15T15:13:41.033Z,17.83
2018-02-15T15:16:08.733Z,23.70
2018-02-15T15:18:36.385Z,20.73
2018-02-15T15:21:03.993Z,18.80
2018-02-15T15:23:31.752Z,19.30
2018-02-15T15:25:59.370Z,12.77
2018-02-15T15:28:27.021Z,18.17
2018-02-15T15:30:54.624Z,16.63
2018-02-15T15:33:22.277Z,16.40
2018-02-15T15:35:49.904Z,18.53
2018-02-15T15:38:17.526Z,17.57
2018-02-15T15:40:45.190Z,22.73
2018-02-15T15:43:12.830Z,22.30
2018-02-15T15:45:40.461Z,19.00
2018-02-15T15:48:08.106Z,18.33
2018-02-15T15:50:35.722Z,17.03
2018-02-15T15:53:03.343Z,17.17
2018-02-15T15:55:30.947Z,15.57
2018-02-15T15:57:58.602Z,16.07
2018-02-15T16:00:26.246Z,18.73
2018-02-15T16:02:53.907Z,16.43
2018-02-15T16:05:21.541Z,14.80
2018-02-15T16:07:49.219Z,14.43
2018-02-15T16:10:16.898Z,13.93
2018-02-15T16:12:44.530Z,15.37
2018-02-15T16:15:12.230Z,16.37
2018-02-15T16:17:39.876Z,12.77
2018-02-15T16:20:07.490Z,14.70
2018-02-15T16:22:35.145Z,14.43
2018-02-15T16:25:02.743Z,12.40
2018-02-15T16:27:30.395Z,11.97
2018-02-15T16:29:58.025Z,13.27
2018-02-15T16:32:25.666Z,14.63
2018-02-15T16:34:53.289Z,14.40
2018-02-15T16:37:20.934Z,16.03
2018-02-15T16:39:48.548Z,18.67
2018-02-15T16:42:16.209Z,18.37
2018-02-15T16:44:43.842Z,20.63
2018-02-15T16:47:11.554Z,17.77
2018-02-15T16:49:39.174Z,18.03
2018-02-15T16:52:06.810Z,21.57
2018-02-15T16:54:34.402Z,21.37
2018-02-15T16:57:02.050Z,18.67
2018-02-15T16:59:29.657Z,20.03
2018-02-15T17:01:57.375Z,16.83
2018-02-15T17:04:25.007Z,22.90
2018-02-15T17:06:52.678Z,18.83
2018-02-15T17:09:20.290Z,19.00
2018-02-15T17:11:47.944Z,18.40
2018-02-15T17:14:15.546Z,22.80
2018-02-15T17:16:43.208Z,16.07
2018-02-15T17:19:10.815Z,58.53
2018-02-15T17:21:38.478Z,19.93
2018-02-15T17:24:06.143Z,20.57
2018-02-15T17:26:33.811Z,41.20
2018-02-15T17:29:01.443Z,19.57
2018-02-15T17:31:29.103Z,21.97
2018-02-15T17:33:56.731Z,16.70
2018-02-15T17:36:24.393Z,16.87
2018-02-15T17:38:52.086Z,17.27
2018-02-15T17:41:19.735Z,18.10
2018-02-15T17:43:47.358Z,16.10
2018-02-15T17:46:15.019Z,19.87
2018-02-15T17:48:42.751Z,14.90
2018-02-15T17:51:10.459Z,20.60
2018-02-15T17:53:38.079Z,14.93
2018-02-15T17:56:05.854Z,18.53
2018-02-15T17:58:33.478Z,21.60
2018-02-15T18:01:01.119Z,16.03
2018-02-15T18:03:28.745Z,13.80
2018-02-15T18:05:56.386Z,14.37
2018-02-15T18:08:23.994Z,11.23
2018-02-15T18:10:51.647Z,13.67
2018-02-15T18:13:19.325Z,13.20
2018-02-15T18:15:47.087Z,16.43
2018-02-15T18:18:14.707Z,15.13
2018-02-15T18:20:42.433Z,13.57
2018-02-15T18:23:10.097Z,15.77
2018-02-15T18:25:37.733Z,21.47
2018-02-15T18:28:05.338Z,17.47
2018-02-15T18:30:32.987Z,16.50
2018-02-15T18:33:00.609Z,19.53
2018-02-15T18:35:28.240Z,19.00
2018-02-15T18:37:55.861Z,21.57
2018-02-15T18:40:23.589Z,19.70
2018-02-15T18:42:51.226Z,25.13
2018-02-15T18:45:18.892Z,52.47
2018-02-15T18:47:46.522Z,23.13
2018-02-15T18:50:14.158Z,16.67
2018-02-15T18:52:41.813Z,14.83
2018-02-15T18:55:09.455Z,16.57
2018-02-15T18:57:37.085Z,16.83
2018-02-15T19:00:04.762Z,13.50
2018-02-15T19:02:32.360Z,15.07
2018-02-15T19:05:00.014Z,18.30
2018-02-15T19:07:27.667Z,20.20
2018-02-15T19:09:55.379Z,16.10
2018-02-15T19:12:23.020Z,19.20
2018-02-15T19:14:50.641Z,16.00
2018-02-15T19:17:18.306Z,15.13
2018-02-15T19:19:45.918Z,14.80
2018-02-15T19:22:13.558Z,15.23
2018-02-15T19:24:41.150Z,18.47
2018-02-15T19:27:08.923Z,16.67
2018-02-15T19:29:36.686Z,13.03
2018-02-15T19:32:04.375Z,12.30
2018-02-15T19:34:31.995Z,14.17
2018-02-15T19:36:59.673Z,11.70
2018-02-15T19:39:27.292Z,14.20
2018-02-15T19:41:54.961Z,12.27
2018-02-15T19:44:22.547Z,14.50
2018-02-15T19:46:50.183Z,24.33
2018-02-15T19:49:17.949Z,14.60
2018-02-15T19:51:45.608Z,15.83
2018-02-15T19:54:13.227Z,16.37
2018-02-15T19:56:40.891Z,13.30
2018-02-15T19:59:08.540Z,12.90
2018-02-15T20:01:36.233Z,11.93
2018-02-15T20:04:03.840Z,9.93
2018-02-15T20:06:31.477Z,13.67
2018-02-15T20:08:59.091Z,12.50
2018-02-15T20:11:26.765Z,30.30
2018-02-15T20:13:54.387Z,17.70
2018-02-15T20:16:22.066Z,13.80
2018-02-15T20:18:49.673Z,12.30
2018-02-15T20:21:17.450Z,14.67
2018-02-15T20:23:45.045Z,13.77
2018-02-15T20:26:18.124Z,11.50
2018-02-15T20:28:45.734Z,14.03
2018-02-15T20:31:13.408Z,14.90
2018-02-15T20:33:41.035Z,12.50
2018-02-15T20:36:08.757Z,11.93
2018-02-15T20:38:41.777Z,25.90
2018-02-15T20:41:09.438Z,15.73
2018-02-15T20:43:37.052Z,14.80
2018-02-15T20:46:04.711Z,13.17
2018-02-15T20:48:32.406Z,12.87
2018-02-15T20:51:05.494Z,12.40
2018-02-15T20:53:38.648Z,11.00
2018-02-15T20:56:06.332Z,10.23
2018-02-15T20:58:33.970Z,10.23
2018-02-15T21:01:01.637Z,12.50
2018-02-15T21:03:29.280Z,10.47
2018-02-15T21:05:56.871Z,9.70
2018-02-15T21:08:24.513Z,10.00
2018-02-15T21:10:52.139Z,12.97
2018-02-15T21:13:19.750Z,8.40
2018-02-15T21:15:47.381Z,9.17
2018-02-15T21:18:15.015Z,9.63
2018-02-15T21:20:42.613Z,11.97
2018-02-15T21:23:10.279Z,7.80
2018-02-15T21:25:37.894Z,10.40
2018-02-15T21:28:05.562Z,8.40
2018-02-15T21:30:33.163Z,8.70
2018-02-15T21:33:00.826Z,9.70
2018-02-15T21:35:28.415Z,9.00
2018-02-15T21:37:56.054Z,8.53
2018-02-15T21:40:23.663Z,8.90
2018-02-15T21:42:51.270Z,8.40
2018-02-15T21:45:18.950Z,8.47
2018-02-15T21:47:46.682Z,10.20
2018-02-15T21:50:14.277Z,11.03
2018-02-15T21:52:41.912Z,5.30
2018-02-15T21:55:09.675Z,7.87
2018-02-15T21:57:37.341Z,7.77
2018-02-15T22:00:04.937Z,6.73
2018-02-15T22:02:32.598Z,8.60
2018-02-15T22:05:00.199Z,8.97
2018-02-15T22:07:27.840Z,9.70
2018-02-15T22:09:55.419Z,10.00
2018-02-15T22:12:23.048Z,10.23
2018-02-15T22:14:50.669Z,13.00
2018-02-15T22:17:18.268Z,12.23
2018-02-15T22:19:45.918Z,13.17
2018-02-15T22:22:13.526Z,14.47
2018-02-15T22:24:41.250Z,12.47
2018-02-15T22:27:08.858Z,14.00
2018-02-15T22:29:36.502Z,11.20
2018-02-15T22:32:04.122Z,11.83
2018-02-15T22:34:31.762Z,12.33
2018-02-15T22:36:59.361Z,11.27
2018-02-15T22:39:29.451Z,12.87
2018-02-15T22:41:57.074Z,13.53
2018-02-15T22:44:24.707Z,13.33
2018-02-15T22:46:52.318Z,10.90
2018-02-15T22:49:19.951Z,11.93
2018-02-15T22:51:47.554Z,14.10
2018-02-15T22:54:15.173Z,10.37
2018-02-15T22:56:42.798Z,11.83
2018-02-15T22:59:10.418Z,11.10
2018-02-15T23:01:38.020Z,10.00
2018-02-15T23:04:05.637Z,12.73
2018-02-15T23:06:33.233Z,13.60
2018-02-15T23:09:00.924Z,11.17
2018-02-15T23:11:28.530Z,12.77
2018-02-15T23:13:56.170Z,11.40
2018-02-15T23:16:23.770Z,10.37
2018-02-15T23:18:51.406Z,9.70
2018-02-15T23:21:19.014Z,9.87
2018-02-15T23:23:46.644Z,9.90
2018-02-15T23:26:14.246Z,9.00
2018-02-15T23:28:41.865Z,10.40
2018-02-15T23:31:09.451Z,9.20
2018-02-15T23:33:37.070Z,11.40
2018-02-15T23:36:04.695Z,10.50
2018-02-15T23:38:32.310Z,14.70
2018-02-15T23:40:59.909Z,10.43
2018-02-15T23:43:27.534Z,10.20
2018-02-15T23:45:55.130Z,10.33
2018-02-15T23:48:22.766Z,10.27
2018-02-15T23:50:50.370Z,9.40
2018-02-15T23:53:17.986Z,9.00
2018-02-15T23:55:45.561Z,8.90
2018-02-15T23:58:13.235Z,11.63
